Íslenskir flugvellir

Veldu flugvelli í þeirri röð sem þeir eiga að birtast og styddu á hnappinn

Uppfært síðast 01.12.2020 - kl. 11:07

SIGMET síðustu 6 klst.

BIRD SIGMET B03 VALID 010800/011000 BIRK- BIRD REYKJAVIK CTA SEV TURB FCST WI N6530 W01510 - N6530 W01830 - N6420 W01910 - N6430 W01420 - N6530 W01510 SFC/FL130 STNR WKN

Húsavík

METAR síðustu 3 klst

TímiSkeyti
2020-12-01 11.00METAR BIHU 011100Z 15014KT 9999 SCT050 05/M01 Q0981
2020-12-01 10.00METAR BIHU 011000Z 20017KT 9999 SCT050 06/01 Q0982
2020-12-01 09.00METAR BIHU 010900Z 18010G25KT 9999 SCT050 07/02 Q0981

TAF

TAFBIHU2020-12-01 10.09Z01112020015G25KT 9999 SCT050 TEMPO 0114/0120 22025G40KT

Allur vindur er réttvísandi bæði í Metar og frá sjálfvirkum veðurstöðvum




Aðrir tengdir vefir



Þetta vefsvæði byggir á Eplica